createdAt,value
2023-03-28T00:02:19.682Z,17.90
2023-03-28T00:04:49.539Z,20.30
2023-03-28T00:07:16.878Z,20.00
2023-03-28T00:09:43.578Z,15.80
2023-03-28T00:12:10.329Z,13.90
2023-03-28T00:14:38.210Z,17.10
2023-03-28T00:17:07.283Z,17.50
2023-03-28T00:19:34.337Z,16.50
2023-03-28T00:22:06.157Z,16.90
2023-03-28T00:24:40.614Z,20.40
2023-03-28T00:27:10.114Z,18.00
2023-03-28T00:29:41.113Z,20.50
2023-03-28T00:32:31.509Z,15.80
2023-03-28T00:35:03.879Z,19.60
2023-03-28T00:37:31.485Z,20.70
2023-03-28T00:40:02.202Z,21.60
2023-03-28T00:42:28.906Z,22.20
2023-03-28T00:44:57.273Z,20.30
2023-03-28T00:47:44.051Z,20.40
2023-03-28T00:50:30.657Z,19.70
2023-03-28T00:53:09.414Z,19.90
2023-03-28T00:55:55.706Z,20.10
2023-03-28T00:58:28.052Z,20.00
2023-03-28T01:04:03.323Z,19.70
2023-03-28T01:06:35.346Z,15.10
2023-03-28T01:09:06.600Z,19.70
2023-03-28T01:11:36.993Z,20.90
2023-03-28T01:14:04.143Z,16.60
2023-03-28T01:16:31.215Z,19.00
2023-03-28T01:19:02.277Z,19.50
2023-03-28T01:22:06.729Z,20.40
2023-03-28T01:24:42.088Z,19.30
2023-03-28T01:27:19.693Z,17.90
2023-03-28T01:30:28.285Z,19.40
2023-03-28T01:33:13.116Z,20.10
2023-03-28T01:35:55.064Z,17.30
2023-03-28T01:38:51.352Z,19.80
2023-03-28T01:41:51.215Z,18.20
2023-03-28T01:44:33.422Z,16.90
2023-03-28T01:47:13.073Z,16.60
2023-03-28T01:49:55.289Z,18.70
2023-03-28T01:52:49.380Z,19.90
2023-03-28T01:55:22.102Z,18.20
2023-03-28T01:58:12.610Z,21.30
2023-03-28T02:00:43.235Z,16.90
2023-03-28T02:03:19.107Z,20.20
2023-03-28T02:05:49.181Z,18.40
2023-03-28T02:08:18.501Z,20.80
2023-03-28T02:10:46.727Z,17.50
2023-03-28T02:13:25.438Z,17.20
2023-03-28T02:15:57.152Z,16.50
2023-03-28T02:18:31.819Z,19.50
2023-03-28T02:21:13.959Z,18.90
2023-03-28T02:23:46.427Z,17.90
2023-03-28T02:26:14.232Z,20.30
2023-03-28T02:28:43.554Z,14.40
2023-03-28T02:31:13.803Z,17.00
2023-03-28T02:33:46.623Z,15.20
2023-03-28T02:36:28.638Z,18.30
2023-03-28T02:39:34.850Z,14.80
2023-03-28T02:42:07.801Z,16.20
2023-03-28T02:45:06.791Z,15.50
2023-03-28T02:47:59.796Z,14.40
2023-03-28T02:50:29.628Z,17.90
2023-03-28T02:53:02.564Z,14.90
2023-03-28T02:55:32.325Z,13.70
2023-03-28T02:58:15.992Z,10.50
2023-03-28T03:00:43.090Z,13.80
2023-03-28T03:03:11.071Z,14.00
2023-03-28T03:05:37.956Z,13.60
2023-03-28T03:08:05.122Z,17.70
2023-03-28T03:10:31.747Z,16.50
2023-03-28T03:12:58.551Z,11.80
2023-03-28T03:15:25.771Z,12.80
2023-03-28T03:17:52.390Z,13.30
2023-03-28T03:20:19.442Z,12.70
2023-03-28T03:22:46.001Z,14.20
2023-03-28T03:25:14.548Z,13.60
2023-03-28T03:27:41.395Z,12.70
2023-03-28T03:30:09.711Z,13.80
2023-03-28T03:32:36.406Z,13.00
2023-03-28T03:35:03.258Z,11.40
2023-03-28T03:37:30.158Z,10.50
2023-03-28T03:39:56.854Z,8.50
2023-03-28T03:42:23.892Z,10.30
2023-03-28T03:44:50.826Z,10.20
2023-03-28T03:47:19.212Z,10.80
2023-03-28T03:49:45.924Z,11.20
2023-03-28T03:52:13.379Z,9.90
2023-03-28T03:54:40.002Z,8.80
2023-03-28T03:57:07.085Z,10.80
2023-03-28T03:59:33.907Z,10.10
2023-03-28T04:02:00.691Z,9.10
2023-03-28T04:04:27.845Z,10.50
2023-03-28T04:06:58.712Z,12.90
2023-03-28T04:09:29.181Z,9.70
2023-03-28T04:11:55.808Z,8.50
2023-03-28T04:14:22.869Z,8.40
2023-03-28T04:16:50.549Z,9.80
2023-03-28T04:19:18.584Z,11.20
2023-03-28T04:21:49.030Z,9.50
2023-03-28T04:24:17.172Z,7.90
2023-03-28T04:26:45.537Z,9.30
2023-03-28T04:29:12.653Z,8.90
2023-03-28T04:31:39.798Z,8.50
2023-03-28T04:34:07.264Z,9.40
2023-03-28T04:36:33.834Z,8.00
2023-03-28T04:39:02.308Z,8.50
2023-03-28T04:41:33.013Z,6.90
2023-03-28T04:44:00.515Z,8.30
2023-03-28T04:46:29.764Z,8.50
2023-03-28T04:48:57.039Z,8.20
2023-03-28T04:51:24.851Z,14.10
2023-03-28T04:53:51.812Z,7.40
2023-03-28T04:56:18.638Z,9.80
2023-03-28T04:58:45.301Z,7.20
2023-03-28T05:01:14.877Z,11.00
2023-03-28T05:03:41.876Z,10.10
2023-03-28T05:06:08.873Z,7.60
2023-03-28T05:08:35.805Z,7.80
2023-03-28T05:11:03.020Z,10.00
2023-03-28T05:13:30.058Z,9.90
2023-03-28T05:15:56.700Z,10.10
2023-03-28T05:18:23.968Z,9.20
2023-03-28T05:20:51.016Z,9.10
2023-03-28T05:23:17.823Z,8.30
2023-03-28T05:25:50.446Z,7.60
2023-03-28T05:28:17.197Z,9.20
2023-03-28T05:30:43.933Z,8.70
2023-03-28T05:33:11.164Z,9.90
2023-03-28T05:35:39.329Z,10.00
2023-03-28T05:38:06.149Z,9.30
2023-03-28T05:40:32.858Z,10.70
2023-03-28T05:42:59.529Z,8.70
2023-03-28T05:45:26.333Z,7.90
2023-03-28T05:47:55.535Z,8.80
2023-03-28T05:50:23.008Z,8.80
2023-03-28T05:52:49.729Z,8.70
2023-03-28T05:55:16.471Z,8.60
2023-03-28T05:57:43.861Z,8.60
2023-03-28T06:00:14.879Z,9.30
2023-03-28T06:02:43.008Z,7.30
2023-03-28T06:05:11.293Z,7.80
2023-03-28T06:07:43.028Z,7.80
2023-03-28T06:10:13.369Z,6.30
2023-03-28T06:12:42.263Z,7.70
2023-03-28T06:15:11.173Z,9.70
2023-03-28T06:17:38.746Z,6.20
2023-03-28T06:20:07.281Z,8.20
2023-03-28T06:22:35.656Z,6.30
2023-03-28T06:25:04.072Z,8.20
2023-03-28T06:27:31.043Z,8.20
2023-03-28T06:29:59.910Z,8.00
2023-03-28T06:32:28.111Z,6.90
2023-03-28T06:34:54.951Z,7.00
2023-03-28T06:37:21.814Z,5.80
2023-03-28T06:39:50.685Z,7.30
2023-03-28T06:42:17.712Z,7.30
2023-03-28T06:44:44.571Z,6.30
2023-03-28T06:47:11.475Z,7.10
2023-03-28T06:49:38.152Z,6.10
2023-03-28T06:52:06.018Z,7.00
2023-03-28T06:54:33.085Z,6.60
2023-03-28T06:57:00.439Z,6.60
2023-03-28T06:59:27.054Z,5.90
2023-03-28T07:01:54.453Z,5.10
2023-03-28T07:04:21.723Z,3.80
2023-03-28T07:06:49.706Z,4.00
2023-03-28T07:09:17.544Z,4.60
2023-03-28T07:11:44.724Z,5.30
2023-03-28T07:14:11.525Z,4.50
2023-03-28T07:16:38.968Z,5.00
2023-03-28T07:19:06.053Z,3.90
2023-03-28T07:21:33.717Z,4.10
2023-03-28T07:24:00.393Z,5.90
2023-03-28T07:26:27.492Z,5.80
2023-03-28T07:28:55.800Z,5.10
2023-03-28T07:31:24.419Z,5.40
2023-03-28T07:33:51.630Z,6.10
2023-03-28T07:36:21.278Z,4.50
2023-03-28T07:38:49.478Z,3.90
2023-03-28T07:41:18.806Z,3.80
2023-03-28T07:46:14.967Z,4.40
2023-03-28T07:48:46.713Z,4.30
2023-03-28T07:51:14.668Z,3.70
2023-03-28T07:53:41.736Z,4.10
2023-03-28T07:56:10.267Z,7.00
2023-03-28T07:58:38.287Z,3.90
2023-03-28T08:01:09.955Z,4.50
2023-03-28T08:03:37.992Z,3.60
2023-03-28T08:06:16.591Z,3.10
2023-03-28T08:08:52.784Z,3.20
2023-03-28T08:11:19.931Z,3.10
2023-03-28T08:13:46.550Z,3.90
2023-03-28T08:16:13.380Z,2.30
2023-03-28T08:18:40.700Z,2.60
2023-03-28T08:21:08.917Z,3.10
2023-03-28T08:23:36.758Z,2.10
2023-03-28T08:26:05.797Z,1.40
2023-03-28T08:28:37.564Z,1.70
2023-03-28T08:31:16.799Z,1.40
2023-03-28T08:33:45.143Z,1.20
2023-03-28T08:36:15.236Z,1.00
2023-03-28T08:38:43.920Z,1.20
2023-03-28T08:42:06.528Z,6.70
2023-03-28T08:45:25.160Z,9.70
2023-03-28T08:49:11.651Z,3.50
2023-03-28T08:51:59.258Z,3.40
2023-03-28T08:57:22.162Z,2.50
2023-03-28T08:59:55.152Z,2.10
2023-03-28T09:02:27.221Z,3.10
2023-03-28T09:05:02.096Z,3.10
2023-03-28T09:07:59.603Z,2.40
2023-03-28T09:10:51.999Z,3.10
2023-03-28T09:13:53.723Z,3.40
2023-03-28T09:17:05.591Z,2.10
2023-03-28T09:19:57.917Z,2.70
2023-03-28T09:22:43.930Z,2.20
2023-03-28T09:25:35.859Z,4.10
2023-03-28T09:28:27.267Z,3.10
2023-03-28T09:30:56.673Z,1.70
2023-03-28T09:34:19.494Z,4.90
2023-03-28T09:36:55.179Z,4.10
2023-03-28T09:39:34.912Z,3.00
2023-03-28T09:42:20.065Z,8.00
2023-03-28T09:45:07.611Z,2.90
2023-03-28T09:47:36.148Z,2.00
2023-03-28T09:50:12.498Z,2.30
2023-03-28T09:52:41.733Z,2.50
2023-03-28T09:55:30.856Z,1.90
2023-03-28T09:58:18.648Z,2.40
2023-03-28T10:00:55.488Z,2.00
2023-03-28T10:03:34.496Z,1.90
2023-03-28T10:06:23.078Z,2.00
2023-03-28T10:08:50.565Z,2.50
2023-03-28T10:11:23.443Z,1.90
2023-03-28T10:13:58.303Z,1.90
2023-03-28T10:16:37.457Z,4.60
2023-03-28T10:19:48.270Z,1.70
2023-03-28T10:22:33.458Z,1.80
2023-03-28T10:25:03.203Z,3.90
2023-03-28T10:27:35.139Z,1.60
2023-03-28T10:30:20.902Z,3.70
2023-03-28T10:33:21.158Z,3.20
2023-03-28T10:35:56.010Z,2.80
2023-03-28T10:38:25.832Z,2.40
2023-03-28T10:41:11.586Z,2.70
2023-03-28T10:43:41.441Z,2.10
2023-03-28T10:46:22.314Z,1.90
2023-03-28T10:48:53.162Z,2.80
2023-03-28T10:51:24.120Z,2.00
2023-03-28T10:54:31.266Z,1.50
2023-03-28T10:57:19.138Z,3.80
2023-03-28T10:59:54.514Z,2.00
2023-03-28T11:02:44.721Z,1.70
2023-03-28T11:05:28.614Z,3.10
2023-03-28T11:08:11.981Z,1.70
2023-03-28T11:10:56.027Z,1.80
2023-03-28T11:13:45.189Z,1.60
2023-03-28T11:16:39.268Z,4.20
2023-03-28T11:19:26.972Z,1.70
2023-03-28T11:22:11.387Z,2.60
2023-03-28T11:24:43.323Z,1.80
2023-03-28T11:27:31.109Z,2.80
2023-03-28T11:30:05.868Z,9.00
2023-03-28T11:32:46.309Z,2.60
2023-03-28T11:35:16.027Z,1.70
2023-03-28T11:38:05.750Z,3.60
2023-03-28T11:40:58.320Z,2.20
2023-03-28T11:43:35.287Z,2.90
2023-03-28T11:46:13.784Z,2.80
2023-03-28T11:48:57.138Z,1.70
2023-03-28T11:51:45.418Z,4.10
2023-03-28T11:54:17.280Z,2.00
2023-03-28T11:57:12.818Z,2.10
2023-03-28T12:00:23.060Z,1.70
2023-03-28T12:03:13.299Z,3.00
2023-03-28T12:05:46.409Z,3.60
2023-03-28T12:08:20.845Z,2.50
2023-03-28T12:10:53.708Z,2.10
2023-03-28T12:13:55.347Z,3.40
2023-03-28T12:16:37.168Z,3.20
2023-03-28T12:19:11.298Z,3.20
2023-03-28T12:21:43.066Z,3.30
2023-03-28T12:24:38.033Z,2.70
2023-03-28T12:27:46.156Z,2.90
2023-03-28T12:30:26.281Z,2.40
2023-03-28T12:33:03.914Z,2.60
2023-03-28T12:35:40.664Z,3.60
2023-03-28T12:38:37.062Z,3.50
2023-03-28T12:41:09.406Z,2.80
2023-03-28T12:43:53.154Z,3.10
2023-03-28T12:46:35.988Z,3.00
2023-03-28T12:49:09.113Z,2.60
2023-03-28T12:51:42.982Z,3.10
2023-03-28T12:54:15.893Z,4.10
2023-03-28T12:57:08.804Z,2.80
2023-03-28T12:59:57.029Z,2.80
2023-03-28T13:02:36.334Z,3.10
2023-03-28T13:05:18.183Z,2.20
2023-03-28T13:07:58.162Z,4.10
2023-03-28T13:10:36.562Z,2.00
2023-03-28T13:13:18.736Z,4.30
2023-03-28T13:16:04.100Z,2.30
2023-03-28T13:18:34.238Z,1.70
2023-03-28T13:21:05.017Z,1.40
2023-03-28T13:23:36.692Z,1.80
2023-03-28T13:26:06.664Z,2.00
2023-03-28T13:28:40.133Z,4.70
2023-03-28T13:31:24.854Z,2.40
2023-03-28T13:33:54.499Z,4.10
2023-03-28T13:36:29.613Z,1.00
2023-03-28T13:39:08.189Z,1.20
2023-03-28T13:41:41.253Z,2.40
2023-03-28T13:44:15.265Z,2.60
2023-03-28T13:46:45.188Z,6.50
2023-03-28T13:49:20.863Z,1.60
2023-03-28T13:52:08.034Z,2.40
2023-03-28T13:54:35.648Z,2.10
2023-03-28T13:57:06.806Z,2.10
2023-03-28T13:59:52.771Z,2.40
2023-03-28T14:02:31.379Z,3.10
2023-03-28T14:05:12.348Z,11.80
2023-03-28T14:07:39.543Z,4.90
2023-03-28T14:10:31.497Z,6.90
2023-03-28T14:13:05.999Z,4.20
2023-03-28T14:15:39.977Z,5.70
2023-03-28T14:18:16.331Z,7.80
2023-03-28T14:20:46.650Z,4.20
2023-03-28T14:23:37.767Z,3.70
2023-03-28T14:26:17.155Z,3.10
2023-03-28T14:28:46.083Z,4.70
2023-03-28T14:31:47.186Z,5.50
2023-03-28T14:34:31.913Z,4.10
2023-03-28T14:37:15.889Z,3.80
2023-03-28T14:39:45.693Z,4.00
2023-03-28T14:42:19.059Z,5.00
2023-03-28T14:44:53.508Z,6.90
2023-03-28T14:47:30.719Z,6.20
2023-03-28T14:50:03.404Z,4.80
2023-03-28T14:52:40.843Z,8.60
2023-03-28T14:55:15.378Z,6.50
2023-03-28T14:57:43.402Z,3.30
2023-03-28T15:00:16.094Z,4.30
2023-03-28T15:02:45.251Z,3.80
2023-03-28T15:05:22.160Z,4.50
2023-03-28T15:08:02.177Z,3.40
2023-03-28T15:10:29.812Z,3.60
2023-03-28T15:13:15.030Z,3.50
2023-03-28T15:15:47.596Z,4.10
2023-03-28T15:18:19.484Z,2.70
2023-03-28T15:20:51.906Z,4.20
2023-03-28T15:23:30.731Z,3.10
2023-03-28T15:26:03.349Z,2.60
2023-03-28T15:28:32.006Z,4.80
2023-03-28T15:31:02.174Z,4.10
2023-03-28T15:33:33.904Z,3.20
2023-03-28T15:36:12.534Z,2.30
2023-03-28T15:38:40.520Z,4.10
2023-03-28T15:41:28.521Z,27.00
2023-03-28T15:43:55.537Z,9.10
2023-03-28T15:46:43.421Z,7.00
2023-03-28T15:49:11.961Z,18.20
2023-03-28T15:52:01.779Z,5.60
2023-03-28T15:54:31.799Z,4.50
2023-03-28T15:57:02.812Z,3.40
2023-03-28T15:59:45.200Z,3.20
2023-03-28T16:02:24.285Z,3.50
2023-03-28T16:05:05.573Z,3.60
2023-03-28T16:07:47.151Z,4.30
2023-03-28T16:10:19.895Z,4.30
2023-03-28T16:12:48.274Z,4.20
2023-03-28T16:15:15.460Z,4.00
2023-03-28T16:17:44.749Z,4.40
2023-03-28T16:20:21.215Z,4.70
2023-03-28T16:22:48.678Z,12.80
2023-03-28T16:25:15.567Z,8.60
2023-03-28T16:27:42.567Z,11.70
2023-03-28T16:30:28.578Z,7.10
2023-03-28T16:32:55.889Z,8.00
2023-03-28T16:35:22.762Z,4.40
2023-03-28T16:37:49.466Z,5.10
2023-03-28T16:40:16.216Z,5.50
2023-03-28T16:42:42.763Z,13.20
2023-03-28T16:45:12.955Z,11.10
2023-03-28T16:47:41.148Z,7.80
2023-03-28T16:50:10.930Z,7.00
2023-03-28T16:52:39.360Z,7.20
2023-03-28T16:55:11.614Z,7.30
2023-03-28T16:57:38.405Z,85.80
2023-03-28T17:00:08.001Z,32.10
2023-03-28T17:02:36.179Z,17.60
2023-03-28T17:05:03.635Z,11.20
2023-03-28T17:07:31.055Z,8.80
2023-03-28T17:09:58.562Z,6.30
2023-03-28T17:12:25.950Z,11.90
2023-03-28T17:14:53.225Z,6.50
2023-03-28T17:17:20.256Z,7.60
2023-03-28T17:19:47.400Z,6.10
2023-03-28T17:22:14.226Z,8.90
2023-03-28T17:24:41.597Z,7.20
2023-03-28T17:27:08.444Z,8.40
2023-03-28T17:29:36.086Z,15.20
2023-03-28T17:32:05.214Z,16.80
2023-03-28T17:34:33.396Z,7.00
2023-03-28T17:37:01.455Z,8.20
2023-03-28T17:39:31.424Z,6.10
2023-03-28T17:41:58.920Z,6.30
2023-03-28T17:44:28.312Z,7.20
2023-03-28T17:46:56.386Z,14.40
2023-03-28T17:49:24.045Z,8.60
2023-03-28T17:51:52.256Z,10.00
2023-03-28T17:54:29.344Z,8.20
2023-03-28T17:56:57.173Z,7.70
2023-03-28T17:59:25.368Z,7.00
2023-03-28T18:01:52.705Z,5.30
2023-03-28T18:04:20.841Z,5.10
2023-03-28T18:06:53.597Z,4.50
2023-03-28T18:09:20.499Z,5.50
2023-03-28T18:11:49.116Z,6.70
2023-03-28T18:14:20.040Z,4.80
2023-03-28T18:16:48.773Z,6.00
2023-03-28T18:19:18.329Z,8.30
2023-03-28T18:21:47.086Z,5.20
2023-03-28T18:24:14.166Z,5.10
2023-03-28T18:26:42.153Z,6.60
2023-03-28T18:29:09.794Z,5.90
2023-03-28T18:31:41.995Z,6.40
2023-03-28T18:34:10.749Z,6.80
2023-03-28T18:36:40.987Z,5.00
2023-03-28T18:39:10.634Z,6.40
2023-03-28T18:41:39.873Z,6.10
2023-03-28T18:44:07.973Z,6.70
2023-03-28T18:46:35.829Z,4.40
2023-03-28T18:49:03.676Z,5.50
2023-03-28T18:51:31.906Z,4.50
2023-03-28T18:54:00.800Z,6.10
2023-03-28T18:56:28.234Z,7.30
2023-03-28T18:58:57.670Z,6.50
2023-03-28T19:01:25.883Z,5.10
2023-03-28T19:03:55.786Z,15.40
2023-03-28T19:06:25.663Z,10.70
2023-03-28T19:08:56.682Z,9.30
2023-03-28T19:11:24.878Z,10.20
2023-03-28T19:13:52.694Z,8.30
2023-03-28T19:16:21.831Z,10.20
2023-03-28T19:18:51.817Z,9.40
2023-03-28T19:21:20.371Z,7.00
2023-03-28T19:23:51.946Z,7.80
2023-03-28T19:26:20.107Z,10.10
2023-03-28T19:28:48.075Z,13.50
2023-03-28T19:31:16.962Z,8.70
2023-03-28T19:33:45.237Z,10.40
2023-03-28T19:36:12.896Z,11.10
2023-03-28T19:38:40.836Z,14.00
2023-03-28T19:41:20.007Z,11.80
2023-03-28T19:43:49.195Z,12.70
2023-03-28T19:46:26.835Z,14.80
2023-03-28T19:48:58.395Z,17.30
2023-03-28T19:51:25.812Z,17.00
2023-03-28T19:53:53.877Z,16.90
2023-03-28T19:56:27.204Z,18.90
2023-03-28T19:58:55.056Z,22.90
2023-03-28T20:01:23.629Z,21.70
2023-03-28T20:04:00.258Z,23.80
2023-03-28T20:06:27.980Z,21.10
2023-03-28T20:08:54.951Z,18.30
2023-03-28T20:11:22.856Z,19.80
2023-03-28T20:13:52.165Z,19.90
2023-03-28T20:16:19.371Z,21.20
2023-03-28T20:18:47.080Z,18.60
2023-03-28T20:21:14.988Z,18.40
2023-03-28T20:23:42.408Z,18.20
2023-03-28T20:26:19.355Z,17.60
2023-03-28T20:28:49.619Z,15.80
2023-03-28T20:31:18.605Z,18.30
2023-03-28T20:33:46.559Z,17.00
2023-03-28T20:36:14.016Z,17.50
2023-03-28T20:38:41.054Z,19.80
2023-03-28T20:41:13.402Z,14.10
2023-03-28T20:43:49.874Z,11.90
2023-03-28T20:46:20.978Z,16.80
2023-03-28T20:48:51.816Z,15.50
2023-03-28T20:51:22.773Z,15.60
2023-03-28T20:53:54.103Z,17.60
2023-03-28T20:56:21.477Z,14.90
2023-03-28T20:58:50.388Z,13.30
2023-03-28T21:01:17.503Z,13.30
2023-03-28T21:03:52.119Z,10.00
2023-03-28T21:06:32.992Z,10.70
2023-03-28T21:09:01.834Z,9.80
2023-03-28T21:11:31.198Z,13.60
2023-03-28T21:13:59.588Z,8.90
2023-03-28T21:16:27.420Z,11.50
2023-03-28T21:18:54.228Z,9.10
2023-03-28T21:21:22.983Z,6.90
2023-03-28T21:23:50.429Z,10.00
2023-03-28T21:26:19.804Z,7.20
2023-03-28T21:28:47.189Z,6.10
2023-03-28T21:31:21.010Z,8.40
2023-03-28T21:33:48.777Z,7.60
2023-03-28T21:36:16.888Z,7.10
2023-03-28T21:38:44.846Z,6.70
2023-03-28T21:41:12.669Z,6.40
2023-03-28T21:43:39.423Z,7.90
2023-03-28T21:46:08.110Z,7.30
2023-03-28T21:48:36.489Z,5.10
2023-03-28T21:51:04.225Z,10.40
2023-03-28T21:53:34.443Z,7.50
2023-03-28T21:56:01.196Z,9.90
2023-03-28T21:58:31.619Z,8.80
2023-03-28T22:00:59.248Z,8.90
2023-03-28T22:03:26.852Z,11.50
2023-03-28T22:05:53.974Z,10.00
2023-03-28T22:08:22.346Z,11.60
2023-03-28T22:10:54.834Z,10.60
2023-03-28T22:13:23.640Z,14.60
2023-03-28T22:15:52.985Z,12.50
2023-03-28T22:18:20.681Z,13.10
2023-03-28T22:20:52.852Z,12.90
2023-03-28T22:23:20.142Z,12.70
2023-03-28T22:25:47.098Z,11.70
2023-03-28T22:28:15.552Z,13.40
2023-03-28T22:30:42.900Z,12.40
2023-03-28T22:33:10.797Z,14.00
2023-03-28T22:35:38.325Z,9.70
2023-03-28T22:38:05.781Z,10.20
2023-03-28T22:40:32.602Z,11.40
2023-03-28T22:42:59.784Z,11.10
2023-03-28T22:45:27.125Z,15.90
2023-03-28T22:47:54.284Z,17.30
2023-03-28T22:50:22.790Z,13.50
2023-03-28T22:52:52.420Z,18.50
2023-03-28T22:55:21.921Z,15.70
2023-03-28T22:57:52.212Z,13.40
2023-03-28T23:00:22.584Z,14.60
2023-03-28T23:02:50.165Z,16.30
2023-03-28T23:05:18.049Z,14.90
2023-03-28T23:07:44.980Z,15.70
2023-03-28T23:10:15.171Z,15.30
2023-03-28T23:12:43.269Z,15.00
2023-03-28T23:15:10.906Z,13.80
2023-03-28T23:17:38.039Z,16.00
2023-03-28T23:20:12.084Z,18.20
2023-03-28T23:22:40.548Z,15.30
2023-03-28T23:25:07.743Z,16.30
2023-03-28T23:27:36.063Z,16.60
2023-03-28T23:30:02.676Z,16.80
2023-03-28T23:32:29.272Z,14.50
2023-03-28T23:35:00.999Z,18.30
2023-03-28T23:37:27.977Z,12.30
2023-03-28T23:39:55.494Z,12.50
2023-03-28T23:42:23.697Z,14.90
2023-03-28T23:44:51.483Z,13.20
2023-03-28T23:47:20.145Z,14.70
2023-03-28T23:49:47.315Z,13.90
2023-03-28T23:52:15.888Z,15.60
2023-03-28T23:54:43.313Z,14.20
2023-03-28T23:57:10.142Z,11.20
2023-03-28T23:59:37.382Z,13.10
